sensor_id;sensor_type;location;lat;lon;timestamp;P1;durP1;ratioP1;P2;durP2;ratioP2
54517;SDS011;40423;53.176;6.002;2023-04-15T00:00:13;14.82;;;5.97;;
54517;SDS011;40423;53.176;6.002;2023-04-15T00:02:42;9.90;;;5.20;;
54517;SDS011;40423;53.176;6.002;2023-04-15T00:05:08;14.05;;;4.82;;
54517;SDS011;40423;53.176;6.002;2023-04-15T00:07:34;12.65;;;5.25;;
54517;SDS011;40423;53.176;6.002;2023-04-15T00:10:00;9.57;;;5.72;;
54517;SDS011;40423;53.176;6.002;2023-04-15T00:12:26;9.43;;;5.97;;
54517;SDS011;40423;53.176;6.002;2023-04-15T00:14:52;10.55;;;5.18;;
54517;SDS011;40423;53.176;6.002;2023-04-15T00:17:21;14.73;;;6.30;;
54517;SDS011;40423;53.176;6.002;2023-04-15T00:19:47;11.48;;;6.13;;
54517;SDS011;40423;53.176;6.002;2023-04-15T00:22:15;15.93;;;5.82;;
54517;SDS011;40423;53.176;6.002;2023-04-15T00:24:42;9.73;;;5.10;;
54517;SDS011;40423;53.176;6.002;2023-04-15T00:27:07;19.00;;;7.47;;
54517;SDS011;40423;53.176;6.002;2023-04-15T00:29:33;12.38;;;5.47;;
54517;SDS011;40423;53.176;6.002;2023-04-15T00:32:02;10.88;;;5.22;;
54517;SDS011;40423;53.176;6.002;2023-04-15T00:34:27;15.98;;;6.68;;
54517;SDS011;40423;53.176;6.002;2023-04-15T00:36:54;12.43;;;5.47;;
54517;SDS011;40423;53.176;6.002;2023-04-15T00:39:21;11.77;;;6.00;;
54517;SDS011;40423;53.176;6.002;2023-04-15T00:41:46;14.57;;;7.78;;
54517;SDS011;40423;53.176;6.002;2023-04-15T00:44:13;14.45;;;6.57;;
54517;SDS011;40423;53.176;6.002;2023-04-15T00:46:39;10.98;;;5.68;;
54517;SDS011;40423;53.176;6.002;2023-04-15T00:49:07;13.00;;;6.70;;
54517;SDS011;40423;53.176;6.002;2023-04-15T00:51:33;8.65;;;6.03;;
54517;SDS011;40423;53.176;6.002;2023-04-15T00:54:04;11.00;;;6.07;;
54517;SDS011;40423;53.176;6.002;2023-04-15T00:56:32;13.23;;;5.82;;
54517;SDS011;40423;53.176;6.002;2023-04-15T00:59:00;10.57;;;5.80;;
54517;SDS011;40423;53.176;6.002;2023-04-15T01:01:26;13.70;;;7.57;;
54517;SDS011;40423;53.176;6.002;2023-04-15T01:03:54;14.88;;;7.03;;
54517;SDS011;40423;53.176;6.002;2023-04-15T01:06:22;14.18;;;8.07;;
54517;SDS011;40423;53.176;6.002;2023-04-15T01:08:48;13.10;;;6.07;;
54517;SDS011;40423;53.176;6.002;2023-04-15T01:11:14;19.95;;;8.50;;
54517;SDS011;40423;53.176;6.002;2023-04-15T01:13:40;12.98;;;6.90;;
54517;SDS011;40423;53.176;6.002;2023-04-15T01:16:07;12.07;;;6.32;;
54517;SDS011;40423;53.176;6.002;2023-04-15T01:18:33;13.18;;;7.50;;
54517;SDS011;40423;53.176;6.002;2023-04-15T01:21:00;12.57;;;7.43;;
54517;SDS011;40423;53.176;6.002;2023-04-15T01:23:28;12.80;;;8.10;;
54517;SDS011;40423;53.176;6.002;2023-04-15T01:25:53;14.00;;;8.40;;
54517;SDS011;40423;53.176;6.002;2023-04-15T01:28:20;14.30;;;7.78;;
54517;SDS011;40423;53.176;6.002;2023-04-15T01:30:46;14.65;;;8.13;;
54517;SDS011;40423;53.176;6.002;2023-04-15T01:33:12;12.90;;;7.72;;
54517;SDS011;40423;53.176;6.002;2023-04-15T01:35:38;15.02;;;7.90;;
54517;SDS011;40423;53.176;6.002;2023-04-15T01:38:05;12.82;;;8.88;;
54517;SDS011;40423;53.176;6.002;2023-04-15T01:40:33;13.30;;;7.75;;
54517;SDS011;40423;53.176;6.002;2023-04-15T01:42:59;11.95;;;7.47;;
54517;SDS011;40423;53.176;6.002;2023-04-15T01:45:28;13.63;;;8.32;;
54517;SDS011;40423;53.176;6.002;2023-04-15T01:47:54;13.88;;;9.15;;
54517;SDS011;40423;53.176;6.002;2023-04-15T01:50:23;16.42;;;9.68;;
54517;SDS011;40423;53.176;6.002;2023-04-15T01:52:49;15.90;;;9.35;;
54517;SDS011;40423;53.176;6.002;2023-04-15T01:55:15;16.10;;;10.30;;
54517;SDS011;40423;53.176;6.002;2023-04-15T01:57:41;16.38;;;9.38;;
54517;SDS011;40423;53.176;6.002;2023-04-15T02:00:07;18.80;;;10.80;;
54517;SDS011;40423;53.176;6.002;2023-04-15T02:02:33;18.40;;;10.23;;
54517;SDS011;40423;53.176;6.002;2023-04-15T02:04:58;14.55;;;9.88;;
54517;SDS011;40423;53.176;6.002;2023-04-15T02:07:24;17.52;;;9.98;;
54517;SDS011;40423;53.176;6.002;2023-04-15T02:09:50;17.20;;;10.05;;
54517;SDS011;40423;53.176;6.002;2023-04-15T02:12:16;17.98;;;10.77;;
54517;SDS011;40423;53.176;6.002;2023-04-15T02:14:41;14.30;;;9.70;;
54517;SDS011;40423;53.176;6.002;2023-04-15T02:17:07;14.50;;;9.90;;
54517;SDS011;40423;53.176;6.002;2023-04-15T02:19:33;16.02;;;10.65;;
54517;SDS011;40423;53.176;6.002;2023-04-15T02:22:00;16.23;;;10.85;;
54517;SDS011;40423;53.176;6.002;2023-04-15T02:24:29;18.67;;;10.23;;
54517;SDS011;40423;53.176;6.002;2023-04-15T02:27:00;15.98;;;9.95;;
54517;SDS011;40423;53.176;6.002;2023-04-15T02:29:27;16.27;;;10.18;;
54517;SDS011;40423;53.176;6.002;2023-04-15T02:31:53;13.05;;;9.18;;
54517;SDS011;40423;53.176;6.002;2023-04-15T02:34:18;15.57;;;9.45;;
54517;SDS011;40423;53.176;6.002;2023-04-15T02:36:44;17.10;;;10.43;;
54517;SDS011;40423;53.176;6.002;2023-04-15T02:39:12;16.73;;;10.25;;
54517;SDS011;40423;53.176;6.002;2023-04-15T02:41:41;12.90;;;9.80;;
54517;SDS011;40423;53.176;6.002;2023-04-15T02:44:08;16.40;;;9.63;;
54517;SDS011;40423;53.176;6.002;2023-04-15T02:46:33;15.68;;;9.50;;
54517;SDS011;40423;53.176;6.002;2023-04-15T02:48:59;17.77;;;10.73;;
54517;SDS011;40423;53.176;6.002;2023-04-15T02:51:28;14.90;;;9.68;;
54517;SDS011;40423;53.176;6.002;2023-04-15T02:53:56;14.98;;;9.48;;
54517;SDS011;40423;53.176;6.002;2023-04-15T02:56:22;14.70;;;10.82;;
54517;SDS011;40423;53.176;6.002;2023-04-15T02:58:48;16.40;;;10.75;;
54517;SDS011;40423;53.176;6.002;2023-04-15T03:01:14;15.88;;;10.70;;
54517;SDS011;40423;53.176;6.002;2023-04-15T03:03:40;19.25;;;12.68;;
54517;SDS011;40423;53.176;6.002;2023-04-15T03:06:09;20.42;;;13.15;;
54517;SDS011;40423;53.176;6.002;2023-04-15T03:08:34;19.92;;;12.32;;
54517;SDS011;40423;53.176;6.002;2023-04-15T03:11:01;19.73;;;12.05;;
54517;SDS011;40423;53.176;6.002;2023-04-15T03:13:26;19.95;;;12.18;;
54517;SDS011;40423;53.176;6.002;2023-04-15T03:15:52;19.25;;;11.32;;
54517;SDS011;40423;53.176;6.002;2023-04-15T03:18:18;18.75;;;12.23;;
54517;SDS011;40423;53.176;6.002;2023-04-15T03:20:44;22.25;;;12.63;;
54517;SDS011;40423;53.176;6.002;2023-04-15T03:23:09;18.85;;;12.45;;
54517;SDS011;40423;53.176;6.002;2023-04-15T03:25:35;19.10;;;11.95;;
54517;SDS011;40423;53.176;6.002;2023-04-15T03:28:01;20.63;;;13.15;;
54517;SDS011;40423;53.176;6.002;2023-04-15T03:30:27;17.20;;;11.55;;
54517;SDS011;40423;53.176;6.002;2023-04-15T03:32:53;18.88;;;12.93;;
54517;SDS011;40423;53.176;6.002;2023-04-15T03:35:19;18.55;;;13.38;;
54517;SDS011;40423;53.176;6.002;2023-04-15T03:37:47;17.98;;;12.02;;
54517;SDS011;40423;53.176;6.002;2023-04-15T03:40:13;19.38;;;11.95;;
54517;SDS011;40423;53.176;6.002;2023-04-15T03:42:39;21.83;;;13.77;;
54517;SDS011;40423;53.176;6.002;2023-04-15T03:45:05;16.15;;;11.18;;
54517;SDS011;40423;53.176;6.002;2023-04-15T03:47:32;17.80;;;12.77;;
54517;SDS011;40423;53.176;6.002;2023-04-15T03:49:57;18.58;;;12.23;;
54517;SDS011;40423;53.176;6.002;2023-04-15T03:52:23;16.25;;;11.70;;
54517;SDS011;40423;53.176;6.002;2023-04-15T03:54:49;20.33;;;13.30;;
54517;SDS011;40423;53.176;6.002;2023-04-15T03:57:15;19.95;;;12.52;;
54517;SDS011;40423;53.176;6.002;2023-04-15T03:59:41;17.40;;;12.02;;
54517;SDS011;40423;53.176;6.002;2023-04-15T04:02:06;19.17;;;12.07;;
54517;SDS011;40423;53.176;6.002;2023-04-15T04:04:32;23.27;;;13.57;;
54517;SDS011;40423;53.176;6.002;2023-04-15T04:06:58;18.42;;;12.77;;
54517;SDS011;40423;53.176;6.002;2023-04-15T04:09:23;21.92;;;12.80;;
54517;SDS011;40423;53.176;6.002;2023-04-15T04:11:49;19.55;;;13.13;;
54517;SDS011;40423;53.176;6.002;2023-04-15T04:14:18;20.10;;;13.50;;
54517;SDS011;40423;53.176;6.002;2023-04-15T04:16:44;17.63;;;12.57;;
54517;SDS011;40423;53.176;6.002;2023-04-15T04:19:09;21.20;;;12.02;;
54517;SDS011;40423;53.176;6.002;2023-04-15T04:21:35;19.75;;;13.32;;
54517;SDS011;40423;53.176;6.002;2023-04-15T04:24:01;17.13;;;11.60;;
54517;SDS011;40423;53.176;6.002;2023-04-15T04:26:27;20.38;;;13.93;;
54517;SDS011;40423;53.176;6.002;2023-04-15T04:28:52;17.85;;;12.40;;
54517;SDS011;40423;53.176;6.002;2023-04-15T04:31:18;19.63;;;13.25;;
54517;SDS011;40423;53.176;6.002;2023-04-15T04:33:44;17.48;;;12.55;;
54517;SDS011;40423;53.176;6.002;2023-04-15T04:36:10;19.02;;;12.88;;
54517;SDS011;40423;53.176;6.002;2023-04-15T04:38:36;21.85;;;12.77;;
54517;SDS011;40423;53.176;6.002;2023-04-15T04:41:01;17.33;;;12.07;;
54517;SDS011;40423;53.176;6.002;2023-04-15T04:43:30;17.33;;;11.65;;
54517;SDS011;40423;53.176;6.002;2023-04-15T04:45:55;17.73;;;12.85;;
54517;SDS011;40423;53.176;6.002;2023-04-15T04:48:21;18.88;;;12.95;;
54517;SDS011;40423;53.176;6.002;2023-04-15T04:50:47;21.75;;;13.98;;
54517;SDS011;40423;53.176;6.002;2023-04-15T04:53:16;20.70;;;13.57;;
54517;SDS011;40423;53.176;6.002;2023-04-15T04:55:42;19.25;;;14.00;;
54517;SDS011;40423;53.176;6.002;2023-04-15T04:58:08;18.35;;;12.55;;
54517;SDS011;40423;53.176;6.002;2023-04-15T05:00:36;22.02;;;14.48;;
54517;SDS011;40423;53.176;6.002;2023-04-15T05:03:02;17.58;;;12.52;;
54517;SDS011;40423;53.176;6.002;2023-04-15T05:05:28;21.80;;;14.18;;
54517;SDS011;40423;53.176;6.002;2023-04-15T05:07:54;20.15;;;13.30;;
54517;SDS011;40423;53.176;6.002;2023-04-15T05:10:20;17.35;;;12.13;;
54517;SDS011;40423;53.176;6.002;2023-04-15T05:12:46;21.40;;;13.20;;
54517;SDS011;40423;53.176;6.002;2023-04-15T05:15:11;21.85;;;14.82;;
54517;SDS011;40423;53.176;6.002;2023-04-15T05:17:40;17.05;;;12.27;;
54517;SDS011;40423;53.176;6.002;2023-04-15T05:20:06;17.17;;;11.63;;
54517;SDS011;40423;53.176;6.002;2023-04-15T05:22:32;20.17;;;13.07;;
54517;SDS011;40423;53.176;6.002;2023-04-15T05:24:58;21.08;;;14.02;;
54517;SDS011;40423;53.176;6.002;2023-04-15T05:27:24;20.58;;;13.13;;
54517;SDS011;40423;53.176;6.002;2023-04-15T05:29:50;17.75;;;12.75;;
54517;SDS011;40423;53.176;6.002;2023-04-15T05:32:15;20.25;;;13.93;;
54517;SDS011;40423;53.176;6.002;2023-04-15T05:34:41;17.65;;;12.02;;
54517;SDS011;40423;53.176;6.002;2023-04-15T05:37:07;17.80;;;12.23;;
54517;SDS011;40423;53.176;6.002;2023-04-15T05:39:33;17.95;;;11.00;;
54517;SDS011;40423;53.176;6.002;2023-04-15T05:41:58;17.25;;;10.43;;
54517;SDS011;40423;53.176;6.002;2023-04-15T05:44:24;15.75;;;10.50;;
54517;SDS011;40423;53.176;6.002;2023-04-15T05:46:50;16.10;;;10.10;;
54517;SDS011;40423;53.176;6.002;2023-04-15T05:49:16;17.40;;;11.77;;
54517;SDS011;40423;53.176;6.002;2023-04-15T05:51:42;13.52;;;10.02;;
54517;SDS011;40423;53.176;6.002;2023-04-15T05:54:07;11.80;;;9.57;;
54517;SDS011;40423;53.176;6.002;2023-04-15T05:56:33;18.27;;;10.15;;
54517;SDS011;40423;53.176;6.002;2023-04-15T05:58:59;15.63;;;10.38;;
54517;SDS011;40423;53.176;6.002;2023-04-15T06:01:25;14.95;;;10.23;;
54517;SDS011;40423;53.176;6.002;2023-04-15T06:03:52;18.50;;;11.68;;
54517;SDS011;40423;53.176;6.002;2023-04-15T06:06:17;14.82;;;10.55;;
54517;SDS011;40423;53.176;6.002;2023-04-15T06:08:44;16.90;;;10.80;;
54517;SDS011;40423;53.176;6.002;2023-04-15T06:11:12;19.30;;;11.90;;
54517;SDS011;40423;53.176;6.002;2023-04-15T06:13:38;14.90;;;10.82;;
54517;SDS011;40423;53.176;6.002;2023-04-15T06:16:04;14.15;;;10.52;;
54517;SDS011;40423;53.176;6.002;2023-04-15T06:18:30;17.20;;;10.93;;
54517;SDS011;40423;53.176;6.002;2023-04-15T06:20:56;14.02;;;10.20;;
54517;SDS011;40423;53.176;6.002;2023-04-15T06:23:22;15.05;;;11.57;;
54517;SDS011;40423;53.176;6.002;2023-04-15T06:25:48;18.02;;;11.43;;
54517;SDS011;40423;53.176;6.002;2023-04-15T06:28:13;17.73;;;10.60;;
54517;SDS011;40423;53.176;6.002;2023-04-15T06:30:39;16.75;;;11.18;;
54517;SDS011;40423;53.176;6.002;2023-04-15T06:33:07;16.50;;;10.75;;
54517;SDS011;40423;53.176;6.002;2023-04-15T06:35:34;17.83;;;10.93;;
54517;SDS011;40423;53.176;6.002;2023-04-15T06:38:00;21.15;;;11.48;;
54517;SDS011;40423;53.176;6.002;2023-04-15T06:40:28;14.02;;;10.35;;
54517;SDS011;40423;53.176;6.002;2023-04-15T06:42:57;14.50;;;10.57;;
54517;SDS011;40423;53.176;6.002;2023-04-15T06:45:23;14.70;;;10.73;;
54517;SDS011;40423;53.176;6.002;2023-04-15T06:47:48;18.58;;;11.98;;
54517;SDS011;40423;53.176;6.002;2023-04-15T06:50:14;16.52;;;10.43;;
54517;SDS011;40423;53.176;6.002;2023-04-15T06:52:40;22.27;;;11.43;;
54517;SDS011;40423;53.176;6.002;2023-04-15T06:55:06;18.70;;;11.60;;
54517;SDS011;40423;53.176;6.002;2023-04-15T06:57:32;20.30;;;12.05;;
54517;SDS011;40423;53.176;6.002;2023-04-15T06:59:58;18.77;;;11.93;;
54517;SDS011;40423;53.176;6.002;2023-04-15T07:02:25;26.23;;;12.73;;
54517;SDS011;40423;53.176;6.002;2023-04-15T07:04:51;20.55;;;13.10;;
54517;SDS011;40423;53.176;6.002;2023-04-15T07:07:17;21.90;;;13.15;;
54517;SDS011;40423;53.176;6.002;2023-04-15T07:09:45;22.27;;;13.23;;
54517;SDS011;40423;53.176;6.002;2023-04-15T07:12:11;16.25;;;11.50;;
54517;SDS011;40423;53.176;6.002;2023-04-15T07:14:37;20.30;;;12.73;;
54517;SDS011;40423;53.176;6.002;2023-04-15T07:17:03;17.17;;;11.43;;
54517;SDS011;40423;53.176;6.002;2023-04-15T07:19:31;15.73;;;10.32;;
54517;SDS011;40423;53.176;6.002;2023-04-15T07:22:00;16.83;;;11.60;;
54517;SDS011;40423;53.176;6.002;2023-04-15T07:24:25;19.48;;;11.60;;
54517;SDS011;40423;53.176;6.002;2023-04-15T07:26:52;15.23;;;9.90;;
54517;SDS011;40423;53.176;6.002;2023-04-15T07:29:21;14.27;;;9.48;;
54517;SDS011;40423;53.176;6.002;2023-04-15T07:31:47;16.13;;;8.02;;
54517;SDS011;40423;53.176;6.002;2023-04-15T07:34:13;14.27;;;8.18;;
54517;SDS011;40423;53.176;6.002;2023-04-15T07:36:41;11.45;;;7.72;;
54517;SDS011;40423;53.176;6.002;2023-04-15T07:39:07;15.55;;;8.77;;
54517;SDS011;40423;53.176;6.002;2023-04-15T07:41:36;13.15;;;7.82;;
54517;SDS011;40423;53.176;6.002;2023-04-15T07:44:05;11.30;;;6.88;;
54517;SDS011;40423;53.176;6.002;2023-04-15T07:46:30;10.98;;;6.97;;
54517;SDS011;40423;53.176;6.002;2023-04-15T07:48:56;11.18;;;6.72;;
54517;SDS011;40423;53.176;6.002;2023-04-15T07:51:22;10.70;;;6.40;;
54517;SDS011;40423;53.176;6.002;2023-04-15T07:53:48;9.07;;;5.60;;
54517;SDS011;40423;53.176;6.002;2023-04-15T07:56:17;8.77;;;6.15;;
54517;SDS011;40423;53.176;6.002;2023-04-15T07:58:43;7.50;;;5.72;;
54517;SDS011;40423;53.176;6.002;2023-04-15T08:01:08;9.38;;;6.07;;
54517;SDS011;40423;53.176;6.002;2023-04-15T08:03:34;9.40;;;5.28;;
54517;SDS011;40423;53.176;6.002;2023-04-15T08:06:00;7.75;;;4.90;;
54517;SDS011;40423;53.176;6.002;2023-04-15T08:08:26;6.45;;;4.60;;
54517;SDS011;40423;53.176;6.002;2023-04-15T08:10:52;9.23;;;4.60;;
54517;SDS011;40423;53.176;6.002;2023-04-15T08:13:18;6.63;;;4.55;;
54517;SDS011;40423;53.176;6.002;2023-04-15T08:15:52;9.65;;;3.90;;
54517;SDS011;40423;53.176;6.002;2023-04-15T08:18:36;7.95;;;4.50;;
54517;SDS011;40423;53.176;6.002;2023-04-15T08:21:03;7.90;;;4.10;;
54517;SDS011;40423;53.176;6.002;2023-04-15T08:23:32;10.10;;;4.18;;
54517;SDS011;40423;53.176;6.002;2023-04-15T08:25:58;13.20;;;4.20;;
54517;SDS011;40423;53.176;6.002;2023-04-15T08:28:24;6.65;;;3.90;;
54517;SDS011;40423;53.176;6.002;2023-04-15T08:30:51;6.93;;;3.83;;
54517;SDS011;40423;53.176;6.002;2023-04-15T08:33:17;6.93;;;4.18;;
54517;SDS011;40423;53.176;6.002;2023-04-15T08:35:43;7.63;;;4.05;;
54517;SDS011;40423;53.176;6.002;2023-04-15T08:38:09;7.85;;;5.00;;
54517;SDS011;40423;53.176;6.002;2023-04-15T08:40:41;9.27;;;4.63;;
54517;SDS011;40423;53.176;6.002;2023-04-15T08:43:09;12.10;;;4.43;;
54517;SDS011;40423;53.176;6.002;2023-04-15T08:45:42;11.45;;;5.15;;
54517;SDS011;40423;53.176;6.002;2023-04-15T08:48:12;7.50;;;4.57;;
54517;SDS011;40423;53.176;6.002;2023-04-15T08:50:45;10.43;;;5.82;;
54517;SDS011;40423;53.176;6.002;2023-04-15T08:53:13;9.00;;;5.30;;
54517;SDS011;40423;53.176;6.002;2023-04-15T08:55:43;11.23;;;5.10;;
54517;SDS011;40423;53.176;6.002;2023-04-15T08:58:10;7.68;;;4.65;;
54517;SDS011;40423;53.176;6.002;2023-04-15T09:00:37;6.32;;;4.20;;
54517;SDS011;40423;53.176;6.002;2023-04-15T09:03:07;7.70;;;4.00;;
54517;SDS011;40423;53.176;6.002;2023-04-15T09:05:39;7.70;;;3.63;;
54517;SDS011;40423;53.176;6.002;2023-04-15T09:08:05;8.07;;;4.18;;
54517;SDS011;40423;53.176;6.002;2023-04-15T09:10:32;6.78;;;3.30;;
54517;SDS011;40423;53.176;6.002;2023-04-15T09:12:58;6.07;;;3.15;;
54517;SDS011;40423;53.176;6.002;2023-04-15T09:15:26;7.82;;;3.40;;
54517;SDS011;40423;53.176;6.002;2023-04-15T09:17:53;6.32;;;3.08;;
54517;SDS011;40423;53.176;6.002;2023-04-15T09:20:20;5.90;;;3.30;;
54517;SDS011;40423;53.176;6.002;2023-04-15T09:22:47;5.55;;;2.88;;
54517;SDS011;40423;53.176;6.002;2023-04-15T09:27:48;6.82;;;3.33;;
54517;SDS011;40423;53.176;6.002;2023-04-15T09:30:15;8.02;;;3.28;;
54517;SDS011;40423;53.176;6.002;2023-04-15T09:35:19;11.15;;;3.72;;
54517;SDS011;40423;53.176;6.002;2023-04-15T09:37:46;8.85;;;3.92;;
54517;SDS011;40423;53.176;6.002;2023-04-15T09:43:05;9.00;;;3.58;;
54517;SDS011;40423;53.176;6.002;2023-04-15T09:45:40;7.43;;;2.92;;
54517;SDS011;40423;53.176;6.002;2023-04-15T09:48:19;5.28;;;2.25;;
54517;SDS011;40423;53.176;6.002;2023-04-15T09:50:58;6.28;;;2.35;;
54517;SDS011;40423;53.176;6.002;2023-04-15T09:53:25;6.80;;;2.17;;
54517;SDS011;40423;53.176;6.002;2023-04-15T09:55:53;5.88;;;1.80;;
54517;SDS011;40423;53.176;6.002;2023-04-15T09:58:21;5.50;;;1.90;;
54517;SDS011;40423;53.176;6.002;2023-04-15T10:00:47;4.50;;;1.75;;
54517;SDS011;40423;53.176;6.002;2023-04-15T10:03:19;4.35;;;1.98;;
54517;SDS011;40423;53.176;6.002;2023-04-15T10:05:47;5.60;;;1.92;;
54517;SDS011;40423;53.176;6.002;2023-04-15T10:08:19;6.63;;;1.75;;
54517;SDS011;40423;53.176;6.002;2023-04-15T10:10:49;3.88;;;1.65;;
54517;SDS011;40423;53.176;6.002;2023-04-15T10:13:20;5.22;;;1.63;;
54517;SDS011;40423;53.176;6.002;2023-04-15T10:15:50;5.45;;;1.92;;
54517;SDS011;40423;53.176;6.002;2023-04-15T10:18:25;3.40;;;1.45;;
54517;SDS011;40423;53.176;6.002;2023-04-15T10:20:53;2.90;;;1.58;;
54517;SDS011;40423;53.176;6.002;2023-04-15T10:23:19;2.72;;;1.38;;
54517;SDS011;40423;53.176;6.002;2023-04-15T10:25:47;3.53;;;1.20;;
54517;SDS011;40423;53.176;6.002;2023-04-15T10:28:15;2.88;;;1.50;;
54517;SDS011;40423;53.176;6.002;2023-04-15T10:30:42;3.45;;;1.60;;
54517;SDS011;40423;53.176;6.002;2023-04-15T10:33:08;4.10;;;1.48;;
54517;SDS011;40423;53.176;6.002;2023-04-15T10:35:35;1.92;;;1.17;;
54517;SDS011;40423;53.176;6.002;2023-04-15T10:46:33;3.70;;;1.98;;
54517;SDS011;40423;53.176;6.002;2023-04-15T10:49:06;3.60;;;1.55;;
54517;SDS011;40423;53.176;6.002;2023-04-15T10:51:32;6.90;;;1.55;;
54517;SDS011;40423;53.176;6.002;2023-04-15T10:53:58;4.10;;;1.48;;
54517;SDS011;40423;53.176;6.002;2023-04-15T10:56:24;5.03;;;1.45;;
54517;SDS011;40423;53.176;6.002;2023-04-15T10:58:52;3.40;;;1.63;;
54517;SDS011;40423;53.176;6.002;2023-04-15T11:01:48;3.45;;;1.77;;
54517;SDS011;40423;53.176;6.002;2023-04-15T11:09:59;3.13;;;1.45;;
54517;SDS011;40423;53.176;6.002;2023-04-15T11:12:34;3.75;;;1.70;;
54517;SDS011;40423;53.176;6.002;2023-04-15T11:17:59;3.97;;;1.35;;
54517;SDS011;40423;53.176;6.002;2023-04-15T11:20:32;2.35;;;1.50;;
54517;SDS011;40423;53.176;6.002;2023-04-15T11:22:59;5.72;;;1.80;;
54517;SDS011;40423;53.176;6.002;2023-04-15T11:25:28;7.70;;;1.80;;
54517;SDS011;40423;53.176;6.002;2023-04-15T11:27:55;5.00;;;1.35;;
54517;SDS011;40423;53.176;6.002;2023-04-15T11:30:26;6.28;;;1.55;;
54517;SDS011;40423;53.176;6.002;2023-04-15T11:33:00;3.40;;;1.67;;
54517;SDS011;40423;53.176;6.002;2023-04-15T11:35:27;4.80;;;1.90;;
54517;SDS011;40423;53.176;6.002;2023-04-15T11:37:53;8.15;;;2.85;;
54517;SDS011;40423;53.176;6.002;2023-04-15T11:40:23;6.20;;;1.90;;
54517;SDS011;40423;53.176;6.002;2023-04-15T11:45:36;6.80;;;2.33;;
54517;SDS011;40423;53.176;6.002;2023-04-15T11:48:12;4.78;;;2.08;;
54517;SDS011;40423;53.176;6.002;2023-04-15T11:50:38;7.18;;;1.92;;
54517;SDS011;40423;53.176;6.002;2023-04-15T11:53:06;9.50;;;2.15;;
54517;SDS011;40423;53.176;6.002;2023-04-15T11:55:46;6.90;;;2.15;;
54517;SDS011;40423;53.176;6.002;2023-04-15T12:00:49;9.38;;;2.05;;
54517;SDS011;40423;53.176;6.002;2023-04-15T12:03:22;7.18;;;2.00;;
54517;SDS011;40423;53.176;6.002;2023-04-15T12:08:50;8.40;;;2.00;;
54517;SDS011;40423;53.176;6.002;2023-04-15T12:11:41;8.98;;;2.58;;
54517;SDS011;40423;53.176;6.002;2023-04-15T12:14:15;6.82;;;1.67;;
54517;SDS011;40423;53.176;6.002;2023-04-15T12:17:02;12.35;;;2.58;;
54517;SDS011;40423;53.176;6.002;2023-04-15T12:22:03;5.83;;;1.30;;
54517;SDS011;40423;53.176;6.002;2023-04-15T12:24:31;8.80;;;1.50;;
54517;SDS011;40423;53.176;6.002;2023-04-15T12:27:02;5.97;;;1.52;;
54517;SDS011;40423;53.176;6.002;2023-04-15T12:29:31;8.73;;;2.03;;
54517;SDS011;40423;53.176;6.002;2023-04-15T12:32:03;9.68;;;2.03;;
54517;SDS011;40423;53.176;6.002;2023-04-15T12:34:30;8.27;;;1.73;;
54517;SDS011;40423;53.176;6.002;2023-04-15T12:37:01;6.25;;;1.50;;
54517;SDS011;40423;53.176;6.002;2023-04-15T12:39:35;9.23;;;1.80;;
54517;SDS011;40423;53.176;6.002;2023-04-15T12:42:08;13.52;;;2.05;;
54517;SDS011;40423;53.176;6.002;2023-04-15T12:44:37;8.02;;;1.90;;
54517;SDS011;40423;53.176;6.002;2023-04-15T12:47:04;9.35;;;1.83;;
54517;SDS011;40423;53.176;6.002;2023-04-15T12:49:31;10.90;;;1.83;;
54517;SDS011;40423;53.176;6.002;2023-04-15T12:51:57;12.23;;;2.05;;
54517;SDS011;40423;53.176;6.002;2023-04-15T12:54:31;7.65;;;1.60;;
54517;SDS011;40423;53.176;6.002;2023-04-15T12:56:57;10.05;;;1.60;;
54517;SDS011;40423;53.176;6.002;2023-04-15T12:59:23;6.28;;;1.60;;
54517;SDS011;40423;53.176;6.002;2023-04-15T13:01:50;6.38;;;1.73;;
54517;SDS011;40423;53.176;6.002;2023-04-15T13:04:17;6.80;;;1.90;;
54517;SDS011;40423;53.176;6.002;2023-04-15T13:06:44;8.18;;;1.65;;
54517;SDS011;40423;53.176;6.002;2023-04-15T13:09:10;15.63;;;1.90;;
54517;SDS011;40423;53.176;6.002;2023-04-15T13:11:36;11.68;;;2.20;;
54517;SDS011;40423;53.176;6.002;2023-04-15T13:14:05;10.75;;;2.45;;
54517;SDS011;40423;53.176;6.002;2023-04-15T13:16:32;12.45;;;2.22;;
54517;SDS011;40423;53.176;6.002;2023-04-15T13:18:59;6.80;;;1.67;;
54517;SDS011;40423;53.176;6.002;2023-04-15T13:21:25;9.52;;;2.05;;
54517;SDS011;40423;53.176;6.002;2023-04-15T13:23:51;13.18;;;2.20;;
54517;SDS011;40423;53.176;6.002;2023-04-15T13:26:17;13.38;;;2.20;;
54517;SDS011;40423;53.176;6.002;2023-04-15T13:28:43;7.03;;;2.30;;
54517;SDS011;40423;53.176;6.002;2023-04-15T13:31:09;9.43;;;1.55;;
54517;SDS011;40423;53.176;6.002;2023-04-15T13:33:35;6.25;;;1.10;;
54517;SDS011;40423;53.176;6.002;2023-04-15T13:36:01;11.35;;;2.00;;
54517;SDS011;40423;53.176;6.002;2023-04-15T13:38:27;8.57;;;1.70;;
54517;SDS011;40423;53.176;6.002;2023-04-15T13:40:53;7.70;;;1.63;;
54517;SDS011;40423;53.176;6.002;2023-04-15T13:43:18;10.60;;;1.75;;
54517;SDS011;40423;53.176;6.002;2023-04-15T13:45:45;8.93;;;1.85;;
54517;SDS011;40423;53.176;6.002;2023-04-15T13:48:11;8.38;;;1.75;;
54517;SDS011;40423;53.176;6.002;2023-04-15T13:50:49;12.80;;;1.92;;
54517;SDS011;40423;53.176;6.002;2023-04-15T13:53:15;8.80;;;1.60;;
54517;SDS011;40423;53.176;6.002;2023-04-15T13:55:43;8.32;;;1.80;;
54517;SDS011;40423;53.176;6.002;2023-04-15T13:58:09;7.18;;;1.50;;
54517;SDS011;40423;53.176;6.002;2023-04-15T14:00:35;14.02;;;3.05;;
54517;SDS011;40423;53.176;6.002;2023-04-15T14:03:01;9.15;;;2.58;;
54517;SDS011;40423;53.176;6.002;2023-04-15T14:05:26;9.32;;;2.65;;
54517;SDS011;40423;53.176;6.002;2023-04-15T14:07:52;10.45;;;1.75;;
54517;SDS011;40423;53.176;6.002;2023-04-15T14:10:18;7.13;;;1.90;;
54517;SDS011;40423;53.176;6.002;2023-04-15T14:12:44;7.45;;;1.90;;
54517;SDS011;40423;53.176;6.002;2023-04-15T14:15:10;12.65;;;1.70;;
54517;SDS011;40423;53.176;6.002;2023-04-15T14:17:36;8.43;;;1.83;;
54517;SDS011;40423;53.176;6.002;2023-04-15T14:20:02;8.45;;;1.67;;
54517;SDS011;40423;53.176;6.002;2023-04-15T14:22:31;7.38;;;1.40;;
54517;SDS011;40423;53.176;6.002;2023-04-15T14:24:57;8.35;;;2.08;;
54517;SDS011;40423;53.176;6.002;2023-04-15T14:27:23;9.50;;;1.67;;
54517;SDS011;40423;53.176;6.002;2023-04-15T14:29:49;9.30;;;1.70;;
54517;SDS011;40423;53.176;6.002;2023-04-15T14:32:15;7.55;;;1.50;;
54517;SDS011;40423;53.176;6.002;2023-04-15T14:34:46;8.02;;;1.95;;
54517;SDS011;40423;53.176;6.002;2023-04-15T14:37:12;11.43;;;1.90;;
54517;SDS011;40423;53.176;6.002;2023-04-15T14:39:37;11.93;;;1.75;;
54517;SDS011;40423;53.176;6.002;2023-04-15T14:42:09;6.95;;;1.67;;
54517;SDS011;40423;53.176;6.002;2023-04-15T14:44:35;5.95;;;1.27;;
54517;SDS011;40423;53.176;6.002;2023-04-15T14:47:01;6.43;;;1.80;;
54517;SDS011;40423;53.176;6.002;2023-04-15T14:49:27;7.57;;;1.35;;
54517;SDS011;40423;53.176;6.002;2023-04-15T14:51:52;5.78;;;1.40;;
54517;SDS011;40423;53.176;6.002;2023-04-15T14:54:18;6.15;;;2.22;;
54517;SDS011;40423;53.176;6.002;2023-04-15T14:56:46;9.35;;;2.33;;
54517;SDS011;40423;53.176;6.002;2023-04-15T14:59:12;7.93;;;1.80;;
54517;SDS011;40423;53.176;6.002;2023-04-15T15:01:38;8.88;;;1.52;;
54517;SDS011;40423;53.176;6.002;2023-04-15T15:04:03;8.00;;;1.77;;
54517;SDS011;40423;53.176;6.002;2023-04-15T15:06:29;10.52;;;2.13;;
54517;SDS011;40423;53.176;6.002;2023-04-15T15:08:58;10.75;;;1.90;;
54517;SDS011;40423;53.176;6.002;2023-04-15T15:11:25;9.60;;;1.63;;